Time;durP1;ratioP1;P1;durP2;ratioP2;P2;SDS_P1;SDS_P2;PMS_P1;PMS_P2;Temp;Humidity;BMP_temperature;BMP_pressure;BME280_temperature;BME280_humidity;BME280_pressure;Samples;Min_cycle;Max_cycle;Signal;HPM_P1;HPM_P2
2024/01/14 00:00:23;;;;;;;8.80;0.70;;;;;;;;;;5098444;28;20039;-78
2024/01/14 00:02:49;;;;;;;9.68;0.77;;;;;;;;;;5118693;28;20066;-76
2024/01/14 00:05:15;;;;;;;10.80;1.05;;;;;;;;;;5098306;28;20040;-78
2024/01/14 00:07:41;;;;;;;9.75;0.70;;;;;;;;;;5116266;28;20539;-77
2024/01/14 00:10:07;;;;;;;10.50;1.33;;;;;;;;;;5099769;28;20047;-77
2024/01/14 00:12:33;;;;;;;10.93;0.80;;;;;;;;;;5097898;28;20454;-76
2024/01/14 00:14:59;;;;;;;9.18;0.70;;;;;;;;;;5116949;28;20102;-79
2024/01/14 00:17:25;;;;;;;13.63;1.27;;;;;;;;;;5118200;28;20047;-76
2024/01/14 00:19:51;;;;;;;6.72;0.70;;;;;;;;;;5098455;28;20098;-75
2024/01/14 00:22:17;;;;;;;3.97;0.65;;;;;;;;;;5116566;28;20044;-79
2024/01/14 00:24:44;;;;;;;12.90;0.80;;;;;;;;;;5117060;28;20044;-77
2024/01/14 00:27:10;;;;;;;12.52;1.13;;;;;;;;;;5101278;28;20059;-76
2024/01/14 00:29:36;;;;;;;12.38;1.40;;;;;;;;;;5117291;28;20074;-77
2024/01/14 00:32:03;;;;;;;9.40;0.73;;;;;;;;;;5116219;28;20048;-77
2024/01/14 00:34:29;;;;;;;9.00;0.70;;;;;;;;;;5117518;28;20100;-76
2024/01/14 00:36:55;;;;;;;9.48;0.98;;;;;;;;;;5098887;28;20403;-77
2024/01/14 00:39:22;;;;;;;8.00;0.80;;;;;;;;;;5116880;28;20047;-76
2024/01/14 00:41:48;;;;;;;11.30;1.00;;;;;;;;;;5098450;28;20047;-77
2024/01/14 00:44:14;;;;;;;4.50;0.50;;;;;;;;;;5117675;28;20383;-77
2024/01/14 00:46:40;;;;;;;10.82;1.35;;;;;;;;;;5116794;28;20051;-78
2024/01/14 00:49:07;;;;;;;12.38;0.63;;;;;;;;;;5099206;28;20044;-78
2024/01/14 00:51:33;;;;;;;10.00;1.65;;;;;;;;;;5117366;28;20122;-77
2024/01/14 00:53:59;;;;;;;8.95;1.02;;;;;;;;;;5081891;28;20148;-78
2024/01/14 00:56:25;;;;;;;8.73;0.77;;;;;;;;;;5097745;28;20086;-80
2024/01/14 00:58:51;;;;;;;6.95;0.40;;;;;;;;;;5119363;28;20044;-79
2024/01/14 01:01:17;;;;;;;5.57;0.57;;;;;;;;;;5101868;28;20058;-79
2024/01/14 01:03:43;;;;;;;9.52;0.50;;;;;;;;;;5099696;28;20050;-80
2024/01/14 01:06:09;;;;;;;8.80;0.82;;;;;;;;;;5116910;28;20100;-79
2024/01/14 01:08:35;;;;;;;11.40;0.45;;;;;;;;;;5118914;28;20127;-80
2024/01/14 01:11:01;;;;;;;14.60;0.50;;;;;;;;;;5100991;28;20096;-79
2024/01/14 01:13:27;;;;;;;8.95;0.82;;;;;;;;;;5117243;28;20047;-78
2024/01/14 01:15:54;;;;;;;7.47;0.45;;;;;;;;;;5099032;28;20130;-81
2024/01/14 01:18:20;;;;;;;8.57;0.50;;;;;;;;;;5115615;28;20040;-78
2024/01/14 01:20:46;;;;;;;9.07;1.27;;;;;;;;;;5099875;28;20108;-78
2024/01/14 01:23:12;;;;;;;11.32;0.85;;;;;;;;;;5081875;28;20052;-78
2024/01/14 01:25:38;;;;;;;13.55;0.70;;;;;;;;;;5099831;28;20456;-78
2024/01/14 01:28:04;;;;;;;6.82;0.52;;;;;;;;;;5080745;28;20056;-78
2024/01/14 01:30:30;;;;;;;9.45;0.52;;;;;;;;;;5115347;28;20051;-79
2024/01/14 01:32:56;;;;;;;8.57;0.60;;;;;;;;;;5098674;28;20116;-79
2024/01/14 01:35:22;;;;;;;12.13;1.95;;;;;;;;;;5097219;28;20047;-79
2024/01/14 01:37:48;;;;;;;7.13;1.05;;;;;;;;;;5116447;28;20054;-81
2024/01/14 01:40:14;;;;;;;9.68;0.40;;;;;;;;;;5099376;28;20048;-80
2024/01/14 01:42:43;;;;;;;14.80;0.68;;;;;;;;;;5120819;28;20044;-79
2024/01/14 01:45:10;;;;;;;6.65;0.80;;;;;;;;;;5120691;28;20043;-79
2024/01/14 01:47:36;;;;;;;8.48;0.57;;;;;;;;;;5119612;28;20134;-80
2024/01/14 01:50:02;;;;;;;6.13;0.50;;;;;;;;;;5119753;28;20459;-80
2024/01/14 01:52:29;;;;;;;7.93;0.60;;;;;;;;;;5102380;28;20113;-78
2024/01/14 01:54:55;;;;;;;7.53;0.40;;;;;;;;;;5120577;28;20243;-78
2024/01/14 01:57:22;;;;;;;11.37;0.60;;;;;;;;;;5120464;28;20378;-81
2024/01/14 01:59:48;;;;;;;4.32;0.40;;;;;;;;;;5102616;28;20048;-79
2024/01/14 02:02:15;;;;;;;10.60;0.50;;;;;;;;;;5101794;28;20051;-80
2024/01/14 02:04:41;;;;;;;11.05;0.90;;;;;;;;;;5101952;28;20047;-82
2024/01/14 02:07:07;;;;;;;7.75;0.35;;;;;;;;;;5101694;28;20047;-79
2024/01/14 02:09:33;;;;;;;8.80;0.70;;;;;;;;;;5101756;28;20074;-80
2024/01/14 02:12:00;;;;;;;13.67;0.60;;;;;;;;;;5119326;28;20090;-79
2024/01/14 02:14:26;;;;;;;12.07;0.50;;;;;;;;;;5119720;28;20051;-76
2024/01/14 02:16:53;;;;;;;10.25;0.38;;;;;;;;;;5122302;28;20069;-78
2024/01/14 02:19:19;;;;;;;5.43;0.40;;;;;;;;;;5084119;28;20043;-82
2024/01/14 02:22:05;;;;;;;7.32;0.50;;;;;;;;;;5101430;28;20079;-81
2024/01/14 02:24:32;;;;;;;9.27;0.73;;;;;;;;;;5119750;28;20352;-83
2024/01/14 02:26:59;;;;;;;12.57;0.63;;;;;;;;;;5119237;28;20052;-80
2024/01/14 02:29:27;;;;;;;12.05;0.73;;;;;;;;;;5119560;28;20070;-82
2024/01/14 02:31:53;;;;;;;13.57;0.77;;;;;;;;;;5099632;28;20056;-81
2024/01/14 02:34:19;;;;;;;7.72;0.40;;;;;;;;;;5099424;28;20134;-79
2024/01/14 02:36:45;;;;;;;8.13;0.90;;;;;;;;;;5082449;28;20146;-81
2024/01/14 02:39:11;;;;;;;12.88;0.65;;;;;;;;;;5083168;28;20087;-78
2024/01/14 02:41:37;;;;;;;13.70;0.95;;;;;;;;;;5118264;28;20105;-80
2024/01/14 02:44:04;;;;;;;12.48;0.30;;;;;;;;;;5117273;28;20573;-80
2024/01/14 02:46:30;;;;;;;10.05;0.93;;;;;;;;;;5117445;28;20129;-80
2024/01/14 02:48:59;;;;;;;7.22;0.43;;;;;;;;;;5117378;28;20048;-79
2024/01/14 02:51:26;;;;;;;9.85;0.40;;;;;;;;;;5116441;28;20074;-80
2024/01/14 02:53:52;;;;;;;10.63;1.00;;;;;;;;;;5097874;28;20039;-80
2024/01/14 02:56:18;;;;;;;8.48;1.23;;;;;;;;;;5098476;28;20052;-80
2024/01/14 02:58:44;;;;;;;6.80;0.60;;;;;;;;;;5098442;28;20079;-80
2024/01/14 03:01:19;;;;;;;11.07;0.80;;;;;;;;;;5116037;28;20039;-80
2024/01/14 03:03:45;;;;;;;8.65;0.55;;;;;;;;;;5116813;28;20047;-83
2024/01/14 03:06:11;;;;;;;6.88;0.38;;;;;;;;;;5099673;28;20039;-79
2024/01/14 03:08:38;;;;;;;9.23;0.90;;;;;;;;;;5116421;28;20051;-81
2024/01/14 03:11:04;;;;;;;4.32;0.68;;;;;;;;;;5116360;28;20052;-81
2024/01/14 03:13:30;;;;;;;11.70;0.50;;;;;;;;;;5098059;28;20043;-80
2024/01/14 03:15:56;;;;;;;9.48;0.63;;;;;;;;;;5116880;28;20116;-79
2024/01/14 03:18:22;;;;;;;7.00;0.57;;;;;;;;;;5098101;28;20126;-80
2024/01/14 03:20:48;;;;;;;9.52;1.27;;;;;;;;;;5116042;28;20065;-78
2024/01/14 03:23:14;;;;;;;8.65;0.35;;;;;;;;;;5098000;28;20075;-78
2024/01/14 03:25:41;;;;;;;10.75;0.90;;;;;;;;;;5116529;28;20146;-81
2024/01/14 03:28:07;;;;;;;9.02;0.60;;;;;;;;;;5097948;28;20387;-80
2024/01/14 03:30:33;;;;;;;7.90;0.35;;;;;;;;;;5080990;28;20479;-79
2024/01/14 03:32:59;;;;;;;12.40;0.60;;;;;;;;;;5116040;28;20048;-79
2024/01/14 03:35:25;;;;;;;10.40;0.63;;;;;;;;;;5097724;28;20051;-80
2024/01/14 03:37:51;;;;;;;8.25;0.60;;;;;;;;;;5097465;28;20047;-79
2024/01/14 03:40:18;;;;;;;4.78;0.50;;;;;;;;;;5115554;28;20104;-80
2024/01/14 03:42:44;;;;;;;8.85;0.50;;;;;;;;;;5097895;28;20043;-79
2024/01/14 03:45:10;;;;;;;8.20;0.50;;;;;;;;;;5097319;28;20372;-79
2024/01/14 03:47:36;;;;;;;10.90;0.75;;;;;;;;;;5115335;28;20043;-78
2024/01/14 03:50:03;;;;;;;8.55;0.43;;;;;;;;;;5115492;28;20047;-80
2024/01/14 03:52:29;;;;;;;9.77;0.50;;;;;;;;;;5097429;28;20454;-78
2024/01/14 03:54:55;;;;;;;9.13;0.43;;;;;;;;;;5080579;28;20449;-81
2024/01/14 03:57:21;;;;;;;6.03;0.45;;;;;;;;;;5115870;28;20048;-80
2024/01/14 03:59:47;;;;;;;5.18;0.50;;;;;;;;;;5115135;28;20046;-81
2024/01/14 04:02:13;;;;;;;7.22;0.52;;;;;;;;;;5115334;28;20175;-81
2024/01/14 04:04:39;;;;;;;7.20;0.50;;;;;;;;;;5096417;28;20043;-82
2024/01/14 04:07:06;;;;;;;7.28;0.40;;;;;;;;;;5097211;28;20055;-82
2024/01/14 04:09:32;;;;;;;8.63;0.40;;;;;;;;;;5097603;28;20408;-81
2024/01/14 04:11:58;;;;;;;8.13;0.35;;;;;;;;;;5115196;28;20122;-80
2024/01/14 04:14:24;;;;;;;8.45;0.30;;;;;;;;;;5115969;28;20048;-82
2024/01/14 04:16:50;;;;;;;6.63;0.40;;;;;;;;;;5115111;28;20047;-83
2024/01/14 04:19:16;;;;;;;12.75;0.77;;;;;;;;;;5115040;28;20050;-82
2024/01/14 04:21:42;;;;;;;8.23;0.30;;;;;;;;;;5115533;28;20383;-80
2024/01/14 04:24:08;;;;;;;5.18;0.38;;;;;;;;;;5080547;28;20049;-79
2024/01/14 04:26:34;;;;;;;5.25;0.22;;;;;;;;;;5096442;28;20059;-82
2024/01/14 04:29:01;;;;;;;6.28;0.30;;;;;;;;;;5115395;28;20117;-83
2024/01/14 04:31:27;;;;;;;5.97;0.32;;;;;;;;;;5114538;28;20156;-79
2024/01/14 04:33:53;;;;;;;5.05;0.55;;;;;;;;;;5114499;28;20047;-79
2024/01/14 04:36:19;;;;;;;8.02;0.30;;;;;;;;;;5096803;28;20062;-79
2024/01/14 04:38:45;;;;;;;3.20;0.37;;;;;;;;;;5114266;28;20542;-79
2024/01/14 04:41:11;;;;;;;11.18;0.40;;;;;;;;;;5114718;28;20680;-80
2024/01/14 04:43:37;;;;;;;9.63;0.68;;;;;;;;;;5079551;28;20052;-79
2024/01/14 04:46:07;;;;;;;7.22;0.60;;;;;;;;;;5115175;28;20398;-81
2024/01/14 04:48:33;;;;;;;5.70;0.52;;;;;;;;;;5096324;28;20391;-78
2024/01/14 04:50:59;;;;;;;7.10;0.40;;;;;;;;;;5097230;28;20349;-79
2024/01/14 04:53:25;;;;;;;5.65;0.20;;;;;;;;;;5096394;28;20044;-80
2024/01/14 04:55:52;;;;;;;11.45;0.55;;;;;;;;;;5097069;28;20044;-79
2024/01/14 04:58:18;;;;;;;3.33;0.20;;;;;;;;;;5079899;28;20478;-79
2024/01/14 05:00:44;;;;;;;8.82;0.22;;;;;;;;;;5114604;28;20050;-81
2024/01/14 05:03:10;;;;;;;5.60;0.30;;;;;;;;;;5097084;28;20126;-80
2024/01/14 05:05:36;;;;;;;8.55;0.40;;;;;;;;;;5096284;28;20040;-81
2024/01/14 05:08:02;;;;;;;7.50;0.35;;;;;;;;;;5096015;28;20122;-81
2024/01/14 05:10:28;;;;;;;5.72;0.20;;;;;;;;;;5096338;28;20040;-81
2024/01/14 05:12:54;;;;;;;8.05;0.30;;;;;;;;;;5113920;28;20495;-84
2024/01/14 05:15:20;;;;;;;5.93;0.32;;;;;;;;;;5114770;28;20483;-82
2024/01/14 05:17:47;;;;;;;4.93;0.20;;;;;;;;;;5081915;28;20083;-78
2024/01/14 05:20:13;;;;;;;8.75;0.55;;;;;;;;;;5104310;28;20047;-81
2024/01/14 05:22:39;;;;;;;11.25;0.40;;;;;;;;;;5122933;28;20043;-82
2024/01/14 05:25:05;;;;;;;6.88;0.70;;;;;;;;;;5086295;28;20064;-80
2024/01/14 05:27:31;;;;;;;6.60;0.47;;;;;;;;;;5122626;28;20062;-80
2024/01/14 05:29:57;;;;;;;5.20;0.30;;;;;;;;;;5117898;28;20050;-80
2024/01/14 05:32:23;;;;;;;12.32;0.40;;;;;;;;;;5084328;28;20392;-78
2024/01/14 05:34:49;;;;;;;6.45;0.35;;;;;;;;;;5098351;28;20044;-80
2024/01/14 05:37:15;;;;;;;8.48;0.30;;;;;;;;;;5097046;28;20048;-79
2024/01/14 05:39:41;;;;;;;6.03;0.80;;;;;;;;;;5115748;28;20047;-79
2024/01/14 05:42:08;;;;;;;4.93;0.45;;;;;;;;;;5114269;28;20052;-79
2024/01/14 05:44:34;;;;;;;5.47;0.50;;;;;;;;;;5095925;28;20067;-79
2024/01/14 05:47:00;;;;;;;11.35;0.80;;;;;;;;;;5114338;28;20079;-80
2024/01/14 05:49:26;;;;;;;8.02;0.68;;;;;;;;;;5096988;28;20047;-81
2024/01/14 05:51:52;;;;;;;14.32;0.60;;;;;;;;;;5119746;28;20048;-82
2024/01/14 05:54:18;;;;;;;3.75;0.47;;;;;;;;;;5102043;28;20475;-79
2024/01/14 05:56:44;;;;;;;11.38;0.60;;;;;;;;;;5103854;28;20063;-81
2024/01/14 05:59:10;;;;;;;8.02;0.63;;;;;;;;;;5118609;28;20047;-80
2024/01/14 06:01:37;;;;;;;9.77;0.65;;;;;;;;;;5098557;28;20093;-79
2024/01/14 06:04:03;;;;;;;9.75;0.60;;;;;;;;;;5117286;28;20072;-79
2024/01/14 06:06:29;;;;;;;9.90;0.82;;;;;;;;;;5100502;28;20056;-79
2024/01/14 06:08:55;;;;;;;11.38;0.75;;;;;;;;;;5118666;28;20048;-82
2024/01/14 06:11:22;;;;;;;9.32;1.85;;;;;;;;;;5118044;28;20058;-80
2024/01/14 06:13:48;;;;;;;6.55;0.80;;;;;;;;;;5117803;28;20050;-80
2024/01/14 06:16:14;;;;;;;10.00;0.50;;;;;;;;;;5098457;28;20054;-79
2024/01/14 06:18:40;;;;;;;10.45;0.52;;;;;;;;;;5100301;28;20126;-79
2024/01/14 06:21:06;;;;;;;11.23;1.10;;;;;;;;;;5081703;28;20099;-78
2024/01/14 06:23:32;;;;;;;10.15;0.85;;;;;;;;;;5116018;28;20043;-79
2024/01/14 06:25:58;;;;;;;7.90;0.38;;;;;;;;;;5100672;28;20059;-81
2024/01/14 06:28:25;;;;;;;5.93;0.40;;;;;;;;;;5101001;28;20048;-79
2024/01/14 06:30:51;;;;;;;4.60;0.40;;;;;;;;;;5100984;28;20506;-81
2024/01/14 06:33:17;;;;;;;6.60;0.40;;;;;;;;;;5121466;28;20375;-79
2024/01/14 06:35:43;;;;;;;11.70;0.30;;;;;;;;;;5120323;28;20066;-81
2024/01/14 06:38:09;;;;;;;3.60;0.52;;;;;;;;;;5119172;28;20050;-82
2024/01/14 06:40:35;;;;;;;7.43;0.40;;;;;;;;;;5102658;28;20051;-83
2024/01/14 06:43:02;;;;;;;9.20;0.50;;;;;;;;;;5120033;28;20051;-81
2024/01/14 06:45:28;;;;;;;5.85;0.40;;;;;;;;;;5086362;28;20289;-83
2024/01/14 06:47:54;;;;;;;2.63;0.20;;;;;;;;;;5118186;28;20522;-79
2024/01/14 06:50:20;;;;;;;5.75;1.30;;;;;;;;;;5118556;28;20361;-80
2024/01/14 06:52:46;;;;;;;9.93;0.52;;;;;;;;;;5117528;28;20044;-81
2024/01/14 06:55:13;;;;;;;3.17;0.20;;;;;;;;;;5117491;28;20480;-82
2024/01/14 06:57:39;;;;;;;7.50;0.43;;;;;;;;;;5116690;28;20051;-78
2024/01/14 07:00:07;;;;;;;3.33;0.20;;;;;;;;;;5120502;28;20044;-77
2024/01/14 07:02:33;;;;;;;4.32;0.25;;;;;;;;;;5123462;28;20063;-78
2024/01/14 07:04:59;;;;;;;3.78;0.20;;;;;;;;;;5088782;28;20058;-79
2024/01/14 07:07:27;;;;;;;4.50;0.30;;;;;;;;;;5123324;28;20047;-78
2024/01/14 07:09:53;;;;;;;;;;;;;;;;;;5122958;28;20047;-76
2024/01/14 07:12:19;;;;;;;10.90;0.40;;;;;;;;;;5120541;28;20023;-76
2024/01/14 07:14:45;;;;;;;6.95;0.30;;;;;;;;;;5098224;28;20047;-76
2024/01/14 07:17:11;;;;;;;4.47;0.20;;;;;;;;;;5116238;28;20043;-76
2024/01/14 07:19:37;;;;;;;5.00;0.30;;;;;;;;;;5115952;28;20036;-74
2024/01/14 07:22:06;;;;;;;1.20;0.20;;;;;;;;;;5115980;28;20509;-76
2024/01/14 07:24:32;;;;;;;6.47;0.30;;;;;;;;;;5098477;28;20390;-74
2024/01/14 07:26:58;;;;;;;6.70;0.40;;;;;;;;;;5086159;28;20568;-74
2024/01/14 07:29:24;;;;;;;7.93;0.30;;;;;;;;;;5095579;28;20153;-74
2024/01/14 07:31:51;;;;;;;5.53;0.65;;;;;;;;;;5077869;28;20050;-76
2024/01/14 07:34:17;;;;;;;7.32;0.50;;;;;;;;;;5078791;28;20071;-76
2024/01/14 07:36:43;;;;;;;9.95;0.47;;;;;;;;;;5095453;28;20059;-75
2024/01/14 07:39:09;;;;;;;7.38;0.40;;;;;;;;;;5096844;28;20044;-75
2024/01/14 07:41:35;;;;;;;5.50;0.40;;;;;;;;;;5096805;28;20047;-75
2024/01/14 07:44:01;;;;;;;5.22;0.47;;;;;;;;;;5097173;28;20055;-74
2024/01/14 07:46:27;;;;;;;7.47;0.50;;;;;;;;;;5079161;28;20388;-75
2024/01/14 07:48:53;;;;;;;4.80;0.30;;;;;;;;;;5098232;28;20059;-75
2024/01/14 07:51:19;;;;;;;7.07;0.82;;;;;;;;;;5065987;28;20067;-76
2024/01/14 07:53:45;;;;;;;5.82;0.43;;;;;;;;;;5068500;28;20047;-77
2024/01/14 07:56:11;;;;;;;8.60;0.77;;;;;;;;;;5100536;28;20066;-76
2024/01/14 07:58:37;;;;;;;5.63;0.52;;;;;;;;;;5100241;28;20044;-77
2024/01/14 08:01:06;;;;;;;8.75;0.70;;;;;;;;;;5084494;28;20541;-75
2024/01/14 08:03:32;;;;;;;7.75;0.75;;;;;;;;;;5104660;28;20094;-75
2024/01/14 08:05:58;;;;;;;5.15;0.80;;;;;;;;;;5066241;28;20056;-75
2024/01/14 08:08:24;;;;;;;5.78;0.90;;;;;;;;;;5066381;28;20126;-76
2024/01/14 08:10:51;;;;;;;7.82;1.02;;;;;;;;;;5100993;28;20048;-77
2024/01/14 08:13:17;;;;;;;3.45;0.60;;;;;;;;;;5102543;28;20044;-77
2024/01/14 08:15:43;;;;;;;9.52;1.02;;;;;;;;;;5101396;28;20192;-79
2024/01/14 08:18:10;;;;;;;10.88;1.65;;;;;;;;;;5083993;28;20488;-75
2024/01/14 08:20:36;;;;;;;6.80;1.23;;;;;;;;;;5084559;28;20193;-77
2024/01/14 08:23:03;;;;;;;7.80;1.00;;;;;;;;;;5100280;28;20044;-76
2024/01/14 08:25:29;;;;;;;10.25;1.25;;;;;;;;;;5082810;28;20101;-76
2024/01/14 08:27:58;;;;;;;7.70;1.45;;;;;;;;;;5103554;28;20055;-78
2024/01/14 08:30:24;;;;;;;8.38;1.75;;;;;;;;;;5122672;28;20486;-78
2024/01/14 08:32:50;;;;;;;10.05;2.35;;;;;;;;;;5121740;28;20039;-76
2024/01/14 08:35:17;;;;;;;10.48;2.05;;;;;;;;;;5122190;28;20103;-76
2024/01/14 08:37:43;;;;;;;9.63;2.30;;;;;;;;;;5119704;28;20047;-75
2024/01/14 08:40:13;;;;;;;11.30;2.38;;;;;;;;;;5122207;28;20040;-76
2024/01/14 08:42:44;;;;;;;10.82;2.13;;;;;;;;;;5107171;28;20117;-78
2024/01/14 08:45:13;;;;;;;12.25;2.67;;;;;;;;;;5104929;28;20040;-77
2024/01/14 08:47:40;;;;;;;12.27;2.42;;;;;;;;;;5108240;28;20395;-77
2024/01/14 08:50:10;;;;;;;12.57;2.50;;;;;;;;;;5119917;28;20047;-75
2024/01/14 08:52:37;;;;;;;13.55;2.83;;;;;;;;;;5104227;28;20311;-77
2024/01/14 08:55:04;;;;;;;8.38;2.05;;;;;;;;;;5103977;28;20167;-77
2024/01/14 08:57:30;;;;;;;12.93;1.83;;;;;;;;;;5097246;28;20054;-75
2024/01/14 08:59:57;;;;;;;8.50;2.10;;;;;;;;;;5113907;28;20044;-74
2024/01/14 09:02:23;;;;;;;9.90;1.85;;;;;;;;;;5095708;28;20126;-74
2024/01/14 09:04:49;;;;;;;10.65;2.05;;;;;;;;;;5079025;28;20043;-76
2024/01/14 09:07:15;;;;;;;12.35;2.25;;;;;;;;;;5114278;28;20066;-75
2024/01/14 09:09:41;;;;;;;11.30;2.55;;;;;;;;;;5078639;28;20079;-74
2024/01/14 09:12:07;;;;;;;9.13;1.98;;;;;;;;;;5095210;28;20066;-75
2024/01/14 09:14:33;;;;;;;12.07;2.70;;;;;;;;;;5114177;28;20043;-73
2024/01/14 09:16:59;;;;;;;8.63;2.88;;;;;;;;;;5095631;28;20050;-73
2024/01/14 09:19:26;;;;;;;10.55;2.92;;;;;;;;;;5113462;28;20044;-72
2024/01/14 09:21:52;;;;;;;12.55;3.25;;;;;;;;;;5113541;28;20054;-73
2024/01/14 09:24:18;;;;;;;11.80;3.40;;;;;;;;;;5095343;28;20048;-74
2024/01/14 09:26:44;;;;;;;14.60;2.90;;;;;;;;;;5113441;28;20059;-74
2024/01/14 09:29:10;;;;;;;12.68;3.75;;;;;;;;;;5095330;28;20127;-73
2024/01/14 09:31:36;;;;;;;14.32;4.00;;;;;;;;;;5113372;28;20127;-74
2024/01/14 09:34:02;;;;;;;15.50;4.85;;;;;;;;;;5113306;28;20492;-75
2024/01/14 09:36:30;;;;;;;14.40;4.32;;;;;;;;;;5113589;28;20056;-75
2024/01/14 09:38:57;;;;;;;18.60;5.57;;;;;;;;;;5113640;28;20052;-74
2024/01/14 09:41:34;;;;;;;17.95;6.03;;;;;;;;;;5113424;28;20050;-74
2024/01/14 09:44:00;;;;;;;;;;;;;;;;;;5096000;28;20051;-74
2024/01/14 09:46:26;;;;;;;23.95;7.95;;;;;;;;;;5112619;28;19920;-74
2024/01/14 09:48:55;;;;;;;27.13;8.60;;;;;;;;;;5095156;28;20040;-74
2024/01/14 09:51:23;;;;;;;25.80;8.55;;;;;;;;;;5095454;28;20477;-74
2024/01/14 09:53:49;;;;;;;28.58;9.00;;;;;;;;;;5113346;28;20082;-75
2024/01/14 09:56:16;;;;;;;26.02;8.77;;;;;;;;;;5113505;28;20444;-74
2024/01/14 09:58:42;;;;;;;28.93;9.07;;;;;;;;;;5078620;28;20164;-78
2024/01/14 10:01:08;;;;;;;24.37;9.03;;;;;;;;;;5114314;28;20039;-76
2024/01/14 10:03:35;;;;;;;22.13;7.82;;;;;;;;;;5097575;28;20043;-75
2024/01/14 10:06:04;;;;;;;26.47;10.17;;;;;;;;;;5117856;28;20043;-75
2024/01/14 10:08:30;;;;;;;25.20;9.15;;;;;;;;;;5118435;28;20043;-78
2024/01/14 10:10:58;;;;;;;25.67;8.75;;;;;;;;;;5083629;28;20040;-77
2024/01/14 10:13:25;;;;;;;29.73;9.80;;;;;;;;;;5119488;28;20051;-74
2024/01/14 10:15:51;;;;;;;31.73;11.32;;;;;;;;;;5102287;28;20076;-76
2024/01/14 10:18:17;;;;;;;31.85;11.60;;;;;;;;;;5119765;28;20147;-74
2024/01/14 10:20:43;;;;;;;35.72;11.25;;;;;;;;;;5101667;28;20134;-75
2024/01/14 10:23:09;;;;;;;30.88;10.93;;;;;;;;;;5120840;28;20044;-75
2024/01/14 10:25:35;;;;;;;34.90;11.75;;;;;;;;;;5103788;28;20043;-76
2024/01/14 10:28:05;;;;;;;28.95;10.15;;;;;;;;;;5123553;28;20095;-75
2024/01/14 10:30:31;;;;;;;29.15;10.60;;;;;;;;;;5121475;28;20139;-75
2024/01/14 10:32:57;;;;;;;24.63;9.35;;;;;;;;;;5122332;28;20035;-76
2024/01/14 10:35:26;;;;;;;25.67;9.00;;;;;;;;;;5120043;28;20099;-75
2024/01/14 10:37:52;;;;;;;27.30;9.20;;;;;;;;;;5104247;28;20048;-75
2024/01/14 10:40:18;;;;;;;28.65;10.10;;;;;;;;;;5108329;28;20044;-76
2024/01/14 10:42:44;;;;;;;26.98;10.45;;;;;;;;;;5093710;28;20118;-75
2024/01/14 10:45:10;;;;;;;28.25;9.98;;;;;;;;;;5125590;28;20039;-77
2024/01/14 10:47:37;;;;;;;24.98;9.35;;;;;;;;;;5124775;28;20036;-82
2024/01/14 10:50:03;;;;;;;23.40;9.50;;;;;;;;;;5126300;28;20051;-76
2024/01/14 10:52:33;;;;;;;22.80;8.85;;;;;;;;;;5123272;28;20039;-75
2024/01/14 10:55:07;;;;;;;24.70;8.98;;;;;;;;;;5125442;28;20126;-76
2024/01/14 10:57:34;;;;;;;24.80;8.48;;;;;;;;;;5105515;28;20079;-76
2024/01/14 11:00:08;;;;;;;23.05;8.52;;;;;;;;;;5109127;28;20047;-75
2024/01/14 11:02:34;;;;;;;22.58;8.48;;;;;;;;;;5123879;28;20075;-77
2024/01/14 11:05:01;;;;;;;21.00;8.38;;;;;;;;;;5125921;28;20044;-76
2024/01/14 11:07:27;;;;;;;25.63;8.98;;;;;;;;;;5123510;28;20060;-77
2024/01/14 11:09:54;;;;;;;25.75;9.02;;;;;;;;;;5123270;28;20090;-77
2024/01/14 11:12:20;;;;;;;23.73;9.43;;;;;;;;;;5103388;28;20048;-74
2024/01/14 11:14:50;;;;;;;26.52;8.45;;;;;;;;;;5121804;28;20043;-76
2024/01/14 11:17:34;;;;;;;26.55;10.93;;;;;;;;;;5119776;28;20103;-75
2024/01/14 11:20:01;;;;;;;21.00;8.88;;;;;;;;;;5118322;28;20043;-75
2024/01/14 11:22:27;;;;;;;25.03;8.67;;;;;;;;;;5099667;28;20051;-76
2024/01/14 11:24:53;;;;;;;24.25;8.60;;;;;;;;;;5118001;28;20337;-76
2024/01/14 11:27:20;;;;;;;25.88;9.50;;;;;;;;;;5096709;28;20063;-74
2024/01/14 11:29:46;;;;;;;27.83;11.00;;;;;;;;;;5097920;28;20078;-76
2024/01/14 11:32:12;;;;;;;26.30;10.02;;;;;;;;;;5098448;28;20469;-76
2024/01/14 11:34:47;;;;;;;31.52;10.25;;;;;;;;;;5097989;28;20048;-77
2024/01/14 11:37:35;;;;;;;27.42;9.90;;;;;;;;;;5098039;28;20055;-77
2024/01/14 11:40:11;;;;;;;28.92;10.07;;;;;;;;;;5099077;28;20044;-76
2024/01/14 11:42:38;;;;;;;27.13;8.90;;;;;;;;;;5097657;28;20361;-75
2024/01/14 11:45:05;;;;;;;;;;;;;;;;;;5095983;28;20116;-74
2024/01/14 11:47:38;;;;;;;30.02;9.98;;;;;;;;;;5095713;28;19927;-75
2024/01/14 11:50:04;;;;;;;29.10;10.40;;;;;;;;;;5095249;28;20084;-75
2024/01/14 11:52:30;;;;;;;32.20;11.03;;;;;;;;;;5095098;28;20044;-76
2024/01/14 11:54:56;;;;;;;30.38;10.30;;;;;;;;;;5095058;28;20073;-78
2024/01/14 11:57:24;;;;;;;29.23;11.07;;;;;;;;;;5095836;28;20048;-76
2024/01/14 11:59:49;;;;;;;;;;;;;;;;;;5096570;28;20036;-75
2024/01/14 12:02:16;;;;;;;31.02;11.80;;;;;;;;;;5094498;28;19927;-75
2024/01/14 12:04:42;;;;;;;31.63;10.48;;;;;;;;;;5094567;28;20233;-77
2024/01/14 12:07:08;;;;;;;36.13;11.10;;;;;;;;;;5095265;28;20048;-74
2024/01/14 12:09:34;;;;;;;30.88;11.98;;;;;;;;;;5094489;28;20396;-74
2024/01/14 12:12:05;;;;;;;33.55;12.10;;;;;;;;;;5096055;28;20051;-76
2024/01/14 12:14:36;;;;;;;34.28;11.55;;;;;;;;;;5096011;28;20435;-75
2024/01/14 12:17:09;;;;;;;32.65;11.70;;;;;;;;;;5094789;28;20526;-76
2024/01/14 12:19:36;;;;;;;35.60;12.85;;;;;;;;;;5079618;28;20044;-80
2024/01/14 12:22:02;;;;;;;34.70;12.18;;;;;;;;;;5098357;28;20052;-76
2024/01/14 12:24:29;;;;;;;;;;;;;;;;;;5078799;28;20055;-76
2024/01/14 12:26:58;;;;;;;28.03;10.43;;;;;;;;;;5107183;28;19965;-75
2024/01/14 12:29:24;;;;;;;33.47;10.48;;;;;;;;;;5120279;28;20324;-76
2024/01/14 12:31:50;;;;;;;38.75;12.73;;;;;;;;;;5118121;28;20054;-77
2024/01/14 12:34:16;;;;;;;34.33;12.25;;;;;;;;;;5117906;28;20119;-76
2024/01/14 12:36:43;;;;;;;31.45;11.68;;;;;;;;;;5119057;28;20078;-75
2024/01/14 12:39:10;;;;;;;31.85;10.95;;;;;;;;;;5100773;28;20126;-77
2024/01/14 12:41:37;;;;;;;30.45;11.82;;;;;;;;;;5122345;28;20044;-77
2024/01/14 12:44:03;;;;;;;28.58;11.15;;;;;;;;;;5104776;28;20059;-76
2024/01/14 12:46:31;;;;;;;35.67;11.93;;;;;;;;;;5123795;28;20051;-77
2024/01/14 12:49:04;;;;;;;33.22;12.18;;;;;;;;;;5089899;28;20069;-76
2024/01/14 12:51:30;;;;;;;30.02;11.00;;;;;;;;;;5123500;28;20047;-78
2024/01/14 12:53:56;;;;;;;35.20;12.13;;;;;;;;;;5123239;28;20048;-76
2024/01/14 12:56:23;;;;;;;28.77;10.88;;;;;;;;;;5105705;28;20051;-78
2024/01/14 12:58:50;;;;;;;27.95;10.18;;;;;;;;;;5110267;28;20061;-81
2024/01/14 13:01:17;;;;;;;22.75;9.02;;;;;;;;;;5092243;28;20392;-76
2024/01/14 13:03:43;;;;;;;27.48;8.80;;;;;;;;;;5107370;28;20116;-77
2024/01/14 13:06:09;;;;;;;19.73;7.38;;;;;;;;;;5108232;28;20043;-78
2024/01/14 13:08:36;;;;;;;23.13;7.57;;;;;;;;;;5126238;28;20047;-78
2024/01/14 13:11:02;;;;;;;19.00;7.15;;;;;;;;;;5125236;28;20065;-80
2024/01/14 13:13:28;;;;;;;18.77;6.90;;;;;;;;;;5109679;28;20040;-76
2024/01/14 13:15:55;;;;;;;19.90;6.18;;;;;;;;;;5105833;28;20479;-78
2024/01/14 13:18:24;;;;;;;18.03;5.30;;;;;;;;;;5093154;28;20055;-77
2024/01/14 13:20:50;;;;;;;12.63;4.22;;;;;;;;;;5112796;28;20484;-79
2024/01/14 13:23:16;;;;;;;14.18;4.28;;;;;;;;;;5129316;28;20040;-76
2024/01/14 13:25:42;;;;;;;10.50;4.03;;;;;;;;;;5128102;28;20047;-81
2024/01/14 13:28:08;;;;;;;13.55;4.10;;;;;;;;;;5128478;28;20059;-76
2024/01/14 13:30:35;;;;;;;13.05;3.97;;;;;;;;;;5124172;28;20044;-83
2024/01/14 13:33:01;;;;;;;12.15;4.18;;;;;;;;;;5106995;28;20043;-77
2024/01/14 13:35:27;;;;;;;10.68;3.85;;;;;;;;;;5125011;28;20043;-80
2024/01/14 13:37:53;;;;;;;8.57;2.60;;;;;;;;;;5092852;28;20133;-77
2024/01/14 13:40:19;;;;;;;7.65;2.25;;;;;;;;;;5096667;28;20055;-76
2024/01/14 13:42:45;;;;;;;7.35;1.58;;;;;;;;;;5129598;28;20122;-79
2024/01/14 13:45:11;;;;;;;7.03;1.33;;;;;;;;;;5131022;28;20065;-77
2024/01/14 13:47:37;;;;;;;4.22;1.15;;;;;;;;;;5128909;28;20050;-81
2024/01/14 13:50:06;;;;;;;5.45;0.80;;;;;;;;;;5112799;28;20036;-81
2024/01/14 13:52:32;;;;;;;2.78;0.90;;;;;;;;;;5095433;28;20043;-80
2024/01/14 13:54:58;;;;;;;5.07;0.90;;;;;;;;;;5112653;28;20076;-77
2024/01/14 13:57:25;;;;;;;3.80;0.80;;;;;;;;;;5134215;28;20056;-78
2024/01/14 13:59:51;;;;;;;3.38;0.50;;;;;;;;;;5094250;28;20047;-76
2024/01/14 14:02:19;;;;;;;1.52;0.40;;;;;;;;;;5125099;28;20047;-79
2024/01/14 14:04:45;;;;;;;3.78;0.40;;;;;;;;;;5105203;28;20055;-77
2024/01/14 14:07:11;;;;;;;3.63;0.50;;;;;;;;;;5106079;28;20055;-76
2024/01/14 14:09:38;;;;;;;2.90;0.40;;;;;;;;;;5127746;28;20051;-76
2024/01/14 14:12:04;;;;;;;1.30;0.30;;;;;;;;;;5096057;28;20126;-76
2024/01/14 14:14:30;;;;;;;3.17;0.33;;;;;;;;;;5112600;28;20079;-77
2024/01/14 14:16:56;;;;;;;2.00;0.28;;;;;;;;;;5132448;28;20078;-77
2024/01/14 14:19:22;;;;;;;3.53;0.30;;;;;;;;;;5112980;28;20054;-79
2024/01/14 14:21:52;;;;;;;4.15;0.30;;;;;;;;;;5123856;28;20039;-77
2024/01/14 14:24:18;;;;;;;1.52;0.30;;;;;;;;;;5109232;28;20047;-78
2024/01/14 14:26:44;;;;;;;4.47;0.50;;;;;;;;;;5092311;28;20152;-76
2024/01/14 14:29:10;;;;;;;2.92;0.38;;;;;;;;;;5109529;28;20116;-78
2024/01/14 14:31:36;;;;;;;2.65;0.50;;;;;;;;;;5092679;28;20448;-78